ADDS METAR Data INFO
IDs: Format: Raw Decoded Include TAF

Data at: 0540 UTC 11 Dec 2017

KRWI 110453Z AUTO 00000KT 10SM CLR M01/M03 A3015 RMK AO2 SLP211 T10061028 400671022
KRWI 110353Z AUTO 18003KT 10SM CLR M02/M03 A3016 RMK AO2 SLP216 T10221028
KRWI 110253Z AUTO 18003KT 10SM CLR M01/M03 A3017 RMK AO2 SLP217 T10111028 53002
KRWI 110153Z AUTO 18003KT 10SM CLR M02/M02 A3016 RMK AO2 SLP216 T10171022
KRWI 110053Z AUTO 00000KT 10SM CLR M01/M02 A3016 RMK AO2 SLP214 T10111017
KRWI 102353Z AUTO 00000KT 10SM CLR M01/M02 A3016 RMK AO2 SLP215 T10111017 10067 21011 53006
KRWI 102253Z AUTO 00000KT 10SM CLR 00/M02 A3015 RMK AO2 SLP212 T00001017
KRWI 102153Z AUTO 24004KT 10SM CLR 04/M03 A3015 RMK AO2 SLP210 T00391033
KRWI 102053Z AUTO 24005KT 10SM CLR 06/M03 A3014 RMK AO2 SLP209 T00561033 55006
KRWI 101953Z AUTO 26006KT 10SM CLR 06/M04 A3014 RMK AO2 SLP207 T00561039
KRWI 101853Z AUTO 29010KT 10SM CLR 07/M03 A3014 RMK AO2 SLP207 T00671033
KRWI 101753Z AUTO 29009KT 10SM CLR 06/M04 A3016 RMK AO2 SLP214 T00561039 10061 21006 58011
KRWI 101653Z AUTO 28008G19KT 10SM FEW040 05/M03 A3018 RMK AO2 SLP222 T00501033
KRWI 101553Z AUTO 27007KT 240V310 10SM CLR 04/M03 A3019 RMK AO2 SLP226 T00441028
KRWI 101453Z AUTO 28008KT 10SM CLR 03/M03 A3019 RMK AO2 SLP226 T00281028 53024
KRWI 101353Z AUTO 26007KT 10SM CLR 01/M03 A3017 RMK AO2 SLP217 T00111028
KRWI 101253Z AUTO 27005KT 10SM CLR M01/M03 A3014 RMK AO2 SLP207 T10061028
KRWI 101153Z AUTO VRB05KT 10SM CLR M01/M03 A3012 RMK AO2 SLP202 70011 T10061028 10011 21006 53037
KRWI 101053Z AUTO 25007KT 10SM CLR M01/M02 A3008 RMK AO2 SLP189 T10061022
KRWI 100953Z AUTO 27006KT 10SM CLR 00/M02 A3005 RMK AO2 SLP176 T00001022
KRWI 100853Z AUTO 27006KT 10SM CLR 01/M01 A3001 RMK AO2 SLP165 T00061011 53021
KRWI 100753Z AUTO 24005KT 8SM SCT065 01/00 A2999 RMK AO2 SLP156 T00060000
KRWI 100653Z AUTO 24005KT 6SM BR SCT060 01/00 A2996 RMK AO2 SLP148 T00060000
KRWI 100553Z AUTO 21005KT 5SM BR BKN100 00/00 A2995 RMK AO2 SLP144 T00000000 10017 20000 53005
KRWI 100535Z AUTO 20004KT 5SM BR FEW014 OVC100 01/01 A2995 RMK AO2 T00060006
KRWI 100514Z AUTO 20003KT 7SM BKN014 01/01 A2995 RMK AO2 T00060006
KRWI 100504Z AUTO 23003KT 8SM BKN016 BKN100 01/01 A2995 RMK AO2 T00110006
KRWI 100453Z AUTO 24003KT 8SM SCT018 BKN100 01/01 A2994 RMK AO2 SLP141 T00110006 400220006
KRWI 100432Z AUTO 24004KT 8SM SCT019 01/01 A2994 RMK AO2 T00060006
KRWI 100420Z AUTO 23004KT 10SM SCT012 BKN019 02/01 A2994 RMK AO2 T00170006
KRWI 100353Z AUTO 25007KT 10SM OVC011 02/01 A2994 RMK AO2 SLP141 T00170011
KRWI 100345Z AUTO 25007KT 9SM BKN009 OVC013 02/01 A2994 RMK AO2 CIG 008V012 T00170011
KRWI 100337Z AUTO 25006KT 8SM OVC011 02/01 A2994 RMK AO2 T00170011
KRWI 100253Z AUTO 25007KT 9SM OVC008 02/01 A2994 RMK AO2 CIG 006V010 SLP139 T00170011 53018
KRWI 100153Z AUTO 25004KT 10SM OVC007 01/01 A2991 RMK AO2 SLP128 T00110011
KRWI 100141Z AUTO 26005KT 10SM BKN007 OVC070 01/01 A2990 RMK AO2 T00110011
KRWI 100107Z AUTO 24004KT 10SM SCT006 OVC070 01/01 A2988 RMK AO2 T00110011
KRWI 100053Z AUTO 22003KT 10SM BKN006 OVC070 01/01 A2988 RMK AO2 SLP119 T00110011
KRWI 100000Z AUTO 25005KT 10SM BKN007 OVC050 01/01 A2989 RMK AO2 T00110011
KRWI 092353Z AUTO 26004KT 10SM SCT007 OVC050 01/01 A2988 RMK AO2 SLP121 60005 T00110011 10022 20011 53022
KRWI 092253Z AUTO 30006KT 10SM BKN008 OVC055 01/01 A2985 RMK AO2 SNE23 SLP109 P0001 T00110011
KRWI 092153Z AUTO 30004KT 4SM -SN BR BKN007 OVC040 01/01 A2984 RMK AO2 UPB26E34SNE26B34 SLP105 P0001 T00110011
KRWI 092115Z AUTO 32006KT 3SM -SN BR BKN007 OVC038 01/01 A2983 RMK AO2 P0001 T00110011
KRWI 092101Z AUTO 31006KT 2 1/2SM -SN BR BKN007 BKN014 OVC038 01/01 A2983 RMK AO2 P0000 T00110011
KRWI 092053Z AUTO 32006KT 3SM -SN BR SCT007 BKN013 OVC038 02/02 A2982 RMK AO2 RAE25UPB40E44SNB25E40B44 SLP099 P0001 60003 T00170017 53013
KRWI 092036Z AUTO 32008KT 3SM -SN BR FEW007 BKN010 OVC017 02/02 A2981 RMK AO2 RAE25SNB25 P0001 T00170017
KRWI 092029Z AUTO 32005KT 2 1/2SM -SN BR BKN007 OVC015 02/02 A2981 RMK AO2 RAE25SNB25 P0001 T00170017
KRWI 091957Z AUTO 33005KT 3SM -RA BR SCT007 BKN013 OVC029 02/02 A2980 RMK AO2 P0000 T00220022
KRWI 091953Z AUTO 33005KT 2 1/2SM -RA BR BKN008 BKN013 OVC032 02/02 A2980 RMK AO2 UPB11E18B34E39RAB18E34B43 SLP091 P0002 T00170017
KRWI 091942Z AUTO 33007KT 2 1/2SM BR BKN008 BKN013 OVC023 02/02 A2979 RMK AO2 UPB11E18B34E39RAB18E34 P0001 T00170017
KRWI 091910Z AUTO 33009KT 1 1/2SM BR BKN007 OVC014 02/02 A2979 RMK AO2 CIG 005V009 T00170017
KRWI 091853Z AUTO 35006KT 2 1/2SM BR BKN006 OVC014 02/02 A2979 RMK AO2 UPE12 CIG 005V009 SLP089 P0000 T00220017
KRWI 091816Z AUTO 35007KT 2SM BR BKN006 OVC010 02/02 A2979 RMK AO2 UPE12 CIG 005V009 P0000 T00220022
KRWI 091753Z AUTO 34008KT 1 3/4SM UP BR OVC006 02/02 A2978 RMK AO2 UPB05E13B47 CIG 005V012 SLP086 P0000 60006 T00220022 10022 20011 56019